Svitzer Leixoes — CSXW6 — position and weather

sailwx.info

Track history (hours):
 
Tides and Currents Weather Stations Pressure Air Temp Water Temp Dewpoint Dewpoint Depression Visibility Wind Speed Wind Dir Waves Ship Positions

Svitzer Leixoes

Last reported at 2015-Mar-31 14:32 UTC. Time now 2015-Mar-31 15:29 UTC.
Position N 38°42' W 009°10'.

Length 28 m; draft 3.9 m.

Type: Towing. MMSI: 263622000.

Date/timePositionNaut miles runAvg speedWind from/ knotsBaromVisibWave heightAir tempDewpointWater temp
2015-Mar-31 14:32N 38°42' W 009°10'0 0.0
2015-Mar-31 13:32N 38°42' W 009°10'0 0.0
2015-Mar-31 12:33N 38°42' W 009°10'0 0.0
2015-Mar-31 11:33N 38°42' W 009°10'0 0.0
2015-Mar-31 10:33N 38°42' W 009°10'0 0.0
2015-Mar-31 09:32N 38°42' W 009°10'0 0.1
2015-Mar-31 08:33N 38°42' W 009°09'0 0.1
2015-Mar-31 07:33N 38°42' W 009°10'0 0.0
2015-Mar-31 06:33N 38°42' W 009°10'0 0.0
2015-Mar-31 05:31N 38°42' W 009°10'0 0.0
2015-Mar-31 04:33N 38°42' W 009°10'0 0.0
2015-Mar-31 03:32N 38°42' W 009°10'0 0.0
2015-Mar-31 02:32N 38°42' W 009°10'0 0.0
2015-Mar-31 01:33N 38°42' W 009°10'0 0.0
2015-Mar-31 00:33N 38°42' W 009°10'0 0.0
2015-Mar-30 23:33N 38°42' W 009°10'0 0.0
2015-Mar-30 22:33N 38°42' W 009°10'0 0.0
2015-Mar-30 21:32N 38°42' W 009°10'0 0.0
2015-Mar-30 20:30N 38°42' W 009°10'0 0.0
2015-Mar-30 19:32N 38°42' W 009°10'1 0.7
2015-Mar-30 18:33N 38°42' W 009°09'1 0.9
2015-Mar-30 17:33N 38°41' W 009°08'1 1.4
2015-Mar-30 16:33N 38°42' W 009°09'0 0.3
2015-Mar-30 15:33N 38°42' W 009°10'0 0.0
2015-Mar-30 14:33N 38°42' W 009°10'0 0.0
2015-Mar-30 13:33N 38°42' W 009°10'0 0.0
2015-Mar-30 12:32N 38°42' W 009°10'0 0.0
2015-Mar-30 11:33N 38°42' W 009°10'0 0.0
2015-Mar-30 10:33N 38°42' W 009°10'0 0.0
2015-Mar-30 09:33N 38°42' W 009°10'0 0.0
2015-Mar-30 08:32N 38°42' W 009°10'0 0.0
2015-Mar-30 07:33N 38°42' W 009°10'0 0.0
2015-Mar-30 06:33N 38°42' W 009°10'0 0.0
2015-Mar-30 05:33N 38°42' W 009°10'0 0.0
2015-Mar-30 04:31N 38°42' W 009°10'0 0.0
2015-Mar-30 03:32N 38°42' W 009°10'0 0.0
2015-Mar-30 02:31N 38°42' W 009°10'0 0.0
2015-Mar-30 01:33N 38°42' W 009°10'1 1.1
2015-Mar-30 00:33N 38°42' W 009°08'3 3.4
2015-Mar-29 23:33N 38°41' W 009°04'4 3.9
2015-Mar-29 22:33N 38°42' W 009°09'1 0.7
2015-Mar-29 21:33N 38°42' W 009°10'0 0.0
2015-Mar-29 20:33N 38°42' W 009°10'0 0.0
2015-Mar-29 19:33N 38°42' W 009°10'0 0.0
2015-Mar-29 18:33N 38°42' W 009°10'0 0.0
2015-Mar-29 17:33N 38°42' W 009°10'0 0.0
2015-Mar-29 16:33N 38°42' W 009°10'0 0.0
2015-Mar-29 15:31N 38°42' W 009°10'0 0.2
2015-Mar-29 14:33N 38°42' W 009°10'0 0.2
2015-Mar-29 13:33N 38°42' W 009°10'0 0.0
2015-Mar-29 12:33N 38°42' W 009°10'0 0.0
2015-Mar-29 11:33N 38°42' W 009°10'0 0.0
2015-Mar-29 10:32N 38°42' W 009°10'0 0.0
2015-Mar-29 09:33N 38°42' W 009°10'0 0.0
2015-Mar-29 08:33N 38°42' W 009°10'0 0.0
2015-Mar-29 07:33N 38°42' W 009°10'0 0.0
2015-Mar-29 06:33N 38°42' W 009°10'0 0.0
2015-Mar-29 05:32N 38°42' W 009°10'0 0.0
2015-Mar-29 04:33N 38°42' W 009°10'0 0.0
2015-Mar-29 03:33N 38°42' W 009°10'0 0.0
2015-Mar-29 02:33N 38°42' W 009°10'0 0.0
2015-Mar-29 01:33N 38°42' W 009°10'0 0.0
2015-Mar-29 00:33N 38°42' W 009°10'0 0.0
2015-Mar-28 23:33N 38°42' W 009°10'0 0.0
2015-Mar-28 22:32N 38°42' W 009°10'0 0.0
2015-Mar-28 21:31N 38°42' W 009°10'0 0.0
2015-Mar-28 20:33N 38°42' W 009°10'0 0.0
2015-Mar-28 19:33N 38°42' W 009°10'0 0.0
2015-Mar-28 18:33N 38°42' W 009°10'0 0.0
2015-Mar-28 17:32N 38°42' W 009°10'0 0.0
2015-Mar-28 16:33N 38°42' W 009°10'0 0.0
2015-Mar-28 15:31N 38°42' W 009°10'0 0.0
2015-Mar-28 14:33N 38°42' W 009°10'0 0.0
2015-Mar-28 13:32N 38°42' W 009°10'0 0.0
2015-Mar-28 12:33N 38°42' W 009°10'0 0.0
2015-Mar-28 11:33N 38°42' W 009°10'0 0.0
2015-Mar-28 10:33N 38°42' W 009°10'4 4.1
2015-Mar-28 09:33N 38°40' W 009°05'3 3.0
2015-Mar-28 08:33N 38°42' W 009°08'1 1.2
2015-Mar-28 07:33N 38°42' W 009°10'0 0.0
2015-Mar-28 06:33N 38°42' W 009°10'0 0.0
2015-Mar-28 05:33N 38°42' W 009°10'0 0.0
2015-Mar-28 04:33N 38°42' W 009°10'0 0.0
2015-Mar-28 03:33N 38°42' W 009°10'0 0.0
2015-Mar-28 02:28N 38°42' W 009°10'0 0.0
2015-Mar-28 01:27N 38°42' W 009°10'0 0.0
2015-Mar-28 00:33N 38°42' W 009°10'0 0.0
2015-Mar-27 23:32N 38°42' W 009°10'2 1.8
2015-Mar-27 22:33N 38°41' W 009°12'2 1.6
2015-Mar-27 21:33N 38°41' W 009°14'3 3.4
2015-Mar-27 20:33N 38°42' W 009°10'0 0.0
2015-Mar-27 19:33N 38°42' W 009°10'0 0.0
2015-Mar-27 18:33N 38°42' W 009°10'0 0.0
2015-Mar-27 17:26N 38°42' W 009°10'0 0.0
2015-Mar-27 16:33N 38°42' W 009°10'0 0.0
2015-Mar-27 15:27N 38°42' W 009°10'0 0.2
2015-Mar-27 14:33N 38°42' W 009°10'0 0.2
2015-Mar-27 13:33N 38°42' W 009°10'0 0.0
2015-Mar-27 12:33N 38°42' W 009°10'0 0.0
2015-Mar-27 11:33N 38°42' W 009°10'0 0.0
2015-Mar-27 10:33N 38°42' W 009°10'0 0.1
2015-Mar-27 09:33N 38°42' W 009°09'0 0.1
2015-Mar-27 08:33N 38°42' W 009°10'2 2.3
2015-Mar-27 07:33N 38°43' W 009°07'2 1.6
2015-Mar-27 06:33N 38°42' W 009°09'1 0.8
2015-Mar-27 05:33N 38°42' W 009°10'0 0.0
2015-Mar-27 04:33N 38°42' W 009°10'0 0.4
2015-Mar-27 03:33N 38°42' W 009°10'0 0.3
2015-Mar-27 02:32N 38°42' W 009°10'0 0.0
2015-Mar-27 01:28N 38°42' W 009°10'0 0.0
2015-Mar-27 00:33N 38°42' W 009°10'1 1.0
2015-Mar-26 23:34N 38°42' W 009°08'2 2.3
2015-Mar-26 22:34N 38°44' W 009°07'0 0.4
2015-Mar-26 21:33N 38°43' W 009°06'1 1.4
2015-Mar-26 20:34N 38°42' W 009°07'3 3.3
2015-Mar-26 19:34N 38°41' W 009°11'1 1.3
2015-Mar-26 18:34N 38°42' W 009°10'0 0.5
2015-Mar-26 17:33N 38°42' W 009°10'0 0.0
2015-Mar-26 16:27N 38°42' W 009°10'2 2.4
2015-Mar-26 15:33N 38°40' W 009°09'2 2.1
2015-Mar-26 14:34N 38°42' W 009°09'0 0.3
2015-Mar-26 13:33N 38°42' W 009°10'0 0.2
2015-Mar-26 12:33N 38°42' W 009°10'0 0.2
2015-Mar-26 11:33N 38°42' W 009°10'0 0.0
2015-Mar-26 10:33N 38°42' W 009°10'2 1.9
2015-Mar-26 09:33N 38°40' W 009°09'2 1.9
2015-Mar-26 08:34N 38°42' W 009°10'0 0.0
2015-Mar-26 07:33N 38°42' W 009°10'0 0.2
2015-Mar-26 06:33N 38°42' W 009°10'0 0.2
2015-Mar-26 05:32N 38°42' W 009°10'0 0.0
2015-Mar-26 04:31N 38°42' W 009°10'0 0.0
2015-Mar-26 03:31N 38°42' W 009°10'0 0.0
2015-Mar-26 02:33N 38°42' W 009°10'0 0.0
2015-Mar-26 01:33N 38°42' W 009°10'0 0.0
2015-Mar-26 00:34N 38°42' W 009°10'0 0.0
2015-Mar-25 23:33N 38°42' W 009°10'0 0.2
2015-Mar-25 22:34N 38°42' W 009°09'2 2.5
2015-Mar-25 21:33N 38°43' W 009°07'3 2.5
2015-Mar-25 20:29N 38°42' W 009°10'0 0.0
2015-Mar-25 19:34N 38°42' W 009°10'2 2.1
2015-Mar-25 18:33N 38°41' W 009°12'0 0.2
2015-Mar-25 17:34N 38°41' W 009°12'4 3.8
2015-Mar-25 16:33N 38°43' W 009°07'1 0.7
2015-Mar-25 15:34N 38°42' W 009°08'1 1.2
2015-Mar-25 14:33N 38°42' W 009°10'1 0.6
2015-Mar-25 13:34N 38°42' W 009°10'1 0.6
2015-Mar-25 12:33N 38°42' W 009°10'0 0.0
2015-Mar-25 11:31N 38°42' W 009°10'0 0.0
2015-Mar-25 10:33N 38°42' W 009°10'0 0.0
2015-Mar-25 09:33N 38°42' W 009°10'0 0.0
2015-Mar-25 08:34N 38°42' W 009°10'0 0.0
2015-Mar-25 07:34N 38°42' W 009°10'1 0.6
2015-Mar-25 06:34N 38°42' W 009°10'1 0.6
2015-Mar-25 05:33N 38°42' W 009°10'0 0.0
2015-Mar-25 04:31N 38°42' W 009°10'0 0.0
2015-Mar-25 03:34N 38°42' W 009°10'0 0.0
2015-Mar-25 02:30N 38°42' W 009°10'0 0.0
2015-Mar-25 01:33N 38°42' W 009°10'2 2.2
2015-Mar-25 00:33N 38°41' W 009°12'1 0.5
2015-Mar-24 23:33N 38°41' W 009°12'2 2.2
2015-Mar-24 22:34N 38°42' W 009°10'0 0.4
2015-Mar-24 21:34N 38°42' W 009°10'0 0.0
2015-Mar-24 20:33N 38°42' W 009°10'2 1.9
2015-Mar-24 19:34N 38°41' W 009°12'0 0.2
2015-Mar-24 18:33N 38°41' W 009°11'2 1.7
2015-Mar-24 17:32N 38°42' W 009°10'0 0.0
2015-Mar-24 16:34N 38°42' W 009°10'0 0.0
2015-Mar-24 15:32N 38°42' W 009°10'0 0.0
2015-Mar-24 14:29N 38°42' W 009°10'0 0.0
2015-Mar-24 13:33N 38°42' W 009°10'0 0.0
2015-Mar-24 12:33N 38°42' W 009°10'0 0.0
2015-Mar-24 11:30N 38°42' W 009°10'0 0.2
2015-Mar-24 10:34N 38°42' W 009°10'0 0.1
2015-Mar-24 09:33N 38°42' W 009°10'0 0.2
2015-Mar-24 08:34N 38°42' W 009°09'0 0.2
2015-Mar-24 07:34N 38°42' W 009°10'0 0.0
2015-Mar-24 06:34N 38°42' W 009°10'0 0.0
2015-Mar-24 05:34N 38°42' W 009°10'0 0.0
2015-Mar-24 04:33N 38°42' W 009°10'0 0.0
2015-Mar-24 03:33N 38°42' W 009°10'0 0.0
2015-Mar-24 02:33N 38°42' W 009°10'0 0.0
2015-Mar-24 01:33N 38°42' W 009°10'0 0.0
2015-Mar-24 00:33N 38°42' W 009°10'0 0.0
2015-Mar-23 23:34N 38°42' W 009°10'0 0.0
2015-Mar-23 22:33N 38°42' W 009°10'1 0.9
2015-Mar-23 21:33N 38°42' W 009°10'1 0.7
2015-Mar-23 20:33N 38°42' W 009°10'0 0.2
2015-Mar-23 19:34N 38°42' W 009°10'0 0.0
2015-Mar-23 18:34N 38°42' W 009°10'0 0.0
2015-Mar-23 17:34N 38°42' W 009°10'0 0.0
2015-Mar-23 16:33N 38°42' W 009°10'0 0.0
2015-Mar-23 15:33N 38°42' W 009°10'0 0.0
2015-Mar-23 14:34N 38°42' W 009°10'0 0.0
2015-Mar-23 13:34N 38°42' W 009°10'0 0.0
2015-Mar-23 12:28N 38°42' W 009°10'2 2.0
2015-Mar-23 11:34N 38°41' W 009°08'1 0.7
2015-Mar-23 10:34N 38°40' W 009°09'0 0.3
2015-Mar-23 09:34N 38°40' W 009°09'0 0.3
2015-Mar-23 08:33N 38°40' W 009°09'2 1.6
2015-Mar-23 07:34N 38°41' W 009°10'1 0.8
2015-Mar-23 06:34N 38°42' W 009°10'0 0.0
2015-Mar-23 05:33N 38°42' W 009°10'0 0.0
2015-Mar-23 04:33N 38°42' W 009°10'0 0.0
2015-Mar-23 03:33N 38°42' W 009°10'0 0.0
2015-Mar-23 02:33N 38°42' W 009°10'0 0.0
2015-Mar-23 01:33N 38°42' W 009°10'0 0.0
2015-Mar-23 00:34N 38°42' W 009°10'0 0.0
2015-Mar-22 23:34N 38°42' W 009°10'0 0.0
2015-Mar-22 22:34N 38°42' W 009°10'0 0.0
2015-Mar-22 21:33N 38°42' W 009°10'0 0.0
2015-Mar-22 20:33N 38°42' W 009°10'0 0.0
2015-Mar-22 19:34N 38°42' W 009°10'1 0.7
2015-Mar-22 18:34N 38°42' W 009°10'2 2.0
2015-Mar-22 17:33N 38°40' W 009°09'0 0.2
2015-Mar-22 16:34N 38°40' W 009°09'1 1.2
2015-Mar-22 15:33N 38°42' W 009°09'1 1.0
2015-Mar-22 14:33N 38°42' W 009°10'0 0.0
2015-Mar-22 13:33N 38°42' W 009°10'0 0.0
2015-Mar-22 12:32N 38°42' W 009°10'0 0.0
2015-Mar-22 11:34N 38°42' W 009°10'0 0.0
2015-Mar-22 10:34N 38°42' W 009°10'0 0.0
2015-Mar-22 09:33N 38°42' W 009°10'0 0.0
2015-Mar-22 08:34N 38°42' W 009°10'1 0.6
2015-Mar-22 07:33N 38°42' W 009°10'1 1.1
2015-Mar-22 06:33N 38°42' W 009°09'1 0.8
2015-Mar-22 05:33N 38°42' W 009°10'0 0.0
2015-Mar-22 04:33N 38°42' W 009°10'0 0.0
2015-Mar-22 03:33N 38°42' W 009°10'0 0.0
2015-Mar-22 02:33N 38°42' W 009°10'0 0.0
2015-Mar-22 01:33N 38°42' W 009°10'0 0.0
2015-Mar-22 00:33N 38°42' W 009°10'0 0.0
2015-Mar-21 23:33N 38°42' W 009°10'0 0.0
2015-Mar-21 22:33N 38°42' W 009°10'0 0.0
2015-Mar-21 21:33N 38°42' W 009°10'0 0.0
2015-Mar-21 20:33N 38°42' W 009°10'0 0.0
2015-Mar-21 19:33N 38°42' W 009°10'0 0.0
2015-Mar-21 18:33N 38°42' W 009°10'0 0.0
2015-Mar-21 17:31N 38°42' W 009°10'0 0.0
2015-Mar-21 16:31N 38°42' W 009°10'0 0.0
2015-Mar-21 15:32N 38°42' W 009°10'0 0.0
2015-Mar-21 14:33N 38°42' W 009°10'  
Track history (hours):
 
Tides and Currents Weather Stations Pressure Air Temp Water Temp Dewpoint Dewpoint Depression Visibility Wind Speed Wind Dir Waves Ship Positions

Svitzer Leixoes

Last reported at 2015-Mar-31 14:32 UTC. Time now 2015-Mar-31 15:29 UTC.
Position N 38°42' W 009°10'.

Length 28 m; draft 3.9 m.

Type: Towing. MMSI: 263622000.

Date/timePositionNaut miles runAvg speedWind from/ knotsBaromVisibWave heightAir tempDewpointWater temp
2015-Mar-31 14:32N 38°42' W 009°10'0 0.0
2015-Mar-31 13:32N 38°42' W 009°10'0 0.0
2015-Mar-31 12:33N 38°42' W 009°10'0 0.0
2015-Mar-31 11:33N 38°42' W 009°10'0 0.0
2015-Mar-31 10:33N 38°42' W 009°10'0 0.0
2015-Mar-31 09:32N 38°42' W 009°10'0 0.1
2015-Mar-31 08:33N 38°42' W 009°09'0 0.1
2015-Mar-31 07:33N 38°42' W 009°10'0 0.0
2015-Mar-31 06:33N 38°42' W 009°10'0 0.0
2015-Mar-31 05:31N 38°42' W 009°10'0 0.0
2015-Mar-31 04:33N 38°42' W 009°10'0 0.0
2015-Mar-31 03:32N 38°42' W 009°10'0 0.0
2015-Mar-31 02:32N 38°42' W 009°10'0 0.0
2015-Mar-31 01:33N 38°42' W 009°10'0 0.0
2015-Mar-31 00:33N 38°42' W 009°10'0 0.0
2015-Mar-30 23:33N 38°42' W 009°10'0 0.0
2015-Mar-30 22:33N 38°42' W 009°10'0 0.0
2015-Mar-30 21:32N 38°42' W 009°10'0 0.0
2015-Mar-30 20:30N 38°42' W 009°10'0 0.0
2015-Mar-30 19:32N 38°42' W 009°10'1 0.7
2015-Mar-30 18:33N 38°42' W 009°09'1 0.9
2015-Mar-30 17:33N 38°41' W 009°08'1 1.4
2015-Mar-30 16:33N 38°42' W 009°09'0 0.3
2015-Mar-30 15:33N 38°42' W 009°10'0 0.0
2015-Mar-30 14:33N 38°42' W 009°10'0 0.0
2015-Mar-30 13:33N 38°42' W 009°10'0 0.0
2015-Mar-30 12:32N 38°42' W 009°10'0 0.0
2015-Mar-30 11:33N 38°42' W 009°10'0 0.0
2015-Mar-30 10:33N 38°42' W 009°10'0 0.0
2015-Mar-30 09:33N 38°42' W 009°10'0 0.0
2015-Mar-30 08:32N 38°42' W 009°10'0 0.0
2015-Mar-30 07:33N 38°42' W 009°10'0 0.0
2015-Mar-30 06:33N 38°42' W 009°10'0 0.0
2015-Mar-30 05:33N 38°42' W 009°10'0 0.0
2015-Mar-30 04:31N 38°42' W 009°10'0 0.0
2015-Mar-30 03:32N 38°42' W 009°10'0 0.0
2015-Mar-30 02:31N 38°42' W 009°10'0 0.0
2015-Mar-30 01:33N 38°42' W 009°10'1 1.1
2015-Mar-30 00:33N 38°42' W 009°08'3 3.4
2015-Mar-29 23:33N 38°41' W 009°04'4 3.9
2015-Mar-29 22:33N 38°42' W 009°09'1 0.7
2015-Mar-29 21:33N 38°42' W 009°10'0 0.0
2015-Mar-29 20:33N 38°42' W 009°10'0 0.0
2015-Mar-29 19:33N 38°42' W 009°10'0 0.0
2015-Mar-29 18:33N 38°42' W 009°10'0 0.0
2015-Mar-29 17:33N 38°42' W 009°10'0 0.0
2015-Mar-29 16:33N 38°42' W 009°10'0 0.0
2015-Mar-29 15:31N 38°42' W 009°10'0 0.2
2015-Mar-29 14:33N 38°42' W 009°10'0 0.2
2015-Mar-29 13:33N 38°42' W 009°10'0 0.0
2015-Mar-29 12:33N 38°42' W 009°10'0 0.0
2015-Mar-29 11:33N 38°42' W 009°10'0 0.0
2015-Mar-29 10:32N 38°42' W 009°10'0 0.0
2015-Mar-29 09:33N 38°42' W 009°10'0 0.0
2015-Mar-29 08:33N 38°42' W 009°10'0 0.0
2015-Mar-29 07:33N 38°42' W 009°10'0 0.0
2015-Mar-29 06:33N 38°42' W 009°10'0 0.0
2015-Mar-29 05:32N 38°42' W 009°10'0 0.0
2015-Mar-29 04:33N 38°42' W 009°10'0 0.0
2015-Mar-29 03:33N 38°42' W 009°10'0 0.0
2015-Mar-29 02:33N 38°42' W 009°10'0 0.0
2015-Mar-29 01:33N 38°42' W 009°10'0 0.0
2015-Mar-29 00:33N 38°42' W 009°10'0 0.0
2015-Mar-28 23:33N 38°42' W 009°10'0 0.0
2015-Mar-28 22:32N 38°42' W 009°10'0 0.0
2015-Mar-28 21:31N 38°42' W 009°10'0 0.0
2015-Mar-28 20:33N 38°42' W 009°10'0 0.0
2015-Mar-28 19:33N 38°42' W 009°10'0 0.0
2015-Mar-28 18:33N 38°42' W 009°10'0 0.0
2015-Mar-28 17:32N 38°42' W 009°10'0 0.0
2015-Mar-28 16:33N 38°42' W 009°10'0 0.0
2015-Mar-28 15:31N 38°42' W 009°10'0 0.0
2015-Mar-28 14:33N 38°42' W 009°10'0 0.0
2015-Mar-28 13:32N 38°42' W 009°10'0 0.0
2015-Mar-28 12:33N 38°42' W 009°10'0 0.0
2015-Mar-28 11:33N 38°42' W 009°10'0 0.0
2015-Mar-28 10:33N 38°42' W 009°10'4 4.1
2015-Mar-28 09:33N 38°40' W 009°05'3 3.0
2015-Mar-28 08:33N 38°42' W 009°08'1 1.2
2015-Mar-28 07:33N 38°42' W 009°10'0 0.0
2015-Mar-28 06:33N 38°42' W 009°10'0 0.0
2015-Mar-28 05:33N 38°42' W 009°10'0 0.0
2015-Mar-28 04:33N 38°42' W 009°10'0 0.0
2015-Mar-28 03:33N 38°42' W 009°10'0 0.0
2015-Mar-28 02:28N 38°42' W 009°10'0 0.0
2015-Mar-28 01:27N 38°42' W 009°10'0 0.0
2015-Mar-28 00:33N 38°42' W 009°10'0 0.0
2015-Mar-27 23:32N 38°42' W 009°10'2 1.8
2015-Mar-27 22:33N 38°41' W 009°12'2 1.6
2015-Mar-27 21:33N 38°41' W 009°14'3 3.4
2015-Mar-27 20:33N 38°42' W 009°10'0 0.0
2015-Mar-27 19:33N 38°42' W 009°10'0 0.0
2015-Mar-27 18:33N 38°42' W 009°10'0 0.0
2015-Mar-27 17:26N 38°42' W 009°10'0 0.0
2015-Mar-27 16:33N 38°42' W 009°10'0 0.0
2015-Mar-27 15:27N 38°42' W 009°10'0 0.2
2015-Mar-27 14:33N 38°42' W 009°10'0 0.2
2015-Mar-27 13:33N 38°42' W 009°10'0 0.0
2015-Mar-27 12:33N 38°42' W 009°10'0 0.0
2015-Mar-27 11:33N 38°42' W 009°10'0 0.0
2015-Mar-27 10:33N 38°42' W 009°10'0 0.1
2015-Mar-27 09:33N 38°42' W 009°09'0 0.1
2015-Mar-27 08:33N 38°42' W 009°10'2 2.3
2015-Mar-27 07:33N 38°43' W 009°07'2 1.6
2015-Mar-27 06:33N 38°42' W 009°09'1 0.8
2015-Mar-27 05:33N 38°42' W 009°10'0 0.0
2015-Mar-27 04:33N 38°42' W 009°10'0 0.4
2015-Mar-27 03:33N 38°42' W 009°10'0 0.3
2015-Mar-27 02:32N 38°42' W 009°10'0 0.0
2015-Mar-27 01:28N 38°42' W 009°10'0 0.0
2015-Mar-27 00:33N 38°42' W 009°10'1 1.0
2015-Mar-26 23:34N 38°42' W 009°08'2 2.3
2015-Mar-26 22:34N 38°44' W 009°07'0 0.4
2015-Mar-26 21:33N 38°43' W 009°06'1 1.4
2015-Mar-26 20:34N 38°42' W 009°07'3 3.3
2015-Mar-26 19:34N 38°41' W 009°11'1 1.3
2015-Mar-26 18:34N 38°42' W 009°10'0 0.5
2015-Mar-26 17:33N 38°42' W 009°10'0 0.0
2015-Mar-26 16:27N 38°42' W 009°10'2 2.4
2015-Mar-26 15:33N 38°40' W 009°09'2 2.1
2015-Mar-26 14:34N 38°42' W 009°09'0 0.3
2015-Mar-26 13:33N 38°42' W 009°10'0 0.2
2015-Mar-26 12:33N 38°42' W 009°10'0 0.2
2015-Mar-26 11:33N 38°42' W 009°10'0 0.0
2015-Mar-26 10:33N 38°42' W 009°10'2 1.9
2015-Mar-26 09:33N 38°40' W 009°09'2 1.9
2015-Mar-26 08:34N 38°42' W 009°10'0 0.0
2015-Mar-26 07:33N 38°42' W 009°10'0 0.2
2015-Mar-26 06:33N 38°42' W 009°10'0 0.2
2015-Mar-26 05:32N 38°42' W 009°10'0 0.0
2015-Mar-26 04:31N 38°42' W 009°10'0 0.0
2015-Mar-26 03:31N 38°42' W 009°10'0 0.0
2015-Mar-26 02:33N 38°42' W 009°10'0 0.0
2015-Mar-26 01:33N 38°42' W 009°10'0 0.0
2015-Mar-26 00:34N 38°42' W 009°10'0 0.0
2015-Mar-25 23:33N 38°42' W 009°10'0 0.2
2015-Mar-25 22:34N 38°42' W 009°09'2 2.5
2015-Mar-25 21:33N 38°43' W 009°07'3 2.5
2015-Mar-25 20:29N 38°42' W 009°10'0 0.0
2015-Mar-25 19:34N 38°42' W 009°10'2 2.1
2015-Mar-25 18:33N 38°41' W 009°12'0 0.2
2015-Mar-25 17:34N 38°41' W 009°12'4 3.8
2015-Mar-25 16:33N 38°43' W 009°07'1 0.7
2015-Mar-25 15:34N 38°42' W 009°08'1 1.2
2015-Mar-25 14:33N 38°42' W 009°10'1 0.6
2015-Mar-25 13:34N 38°42' W 009°10'1 0.6
2015-Mar-25 12:33N 38°42' W 009°10'0 0.0
2015-Mar-25 11:31N 38°42' W 009°10'0 0.0
2015-Mar-25 10:33N 38°42' W 009°10'0 0.0
2015-Mar-25 09:33N 38°42' W 009°10'0 0.0
2015-Mar-25 08:34N 38°42' W 009°10'0 0.0
2015-Mar-25 07:34N 38°42' W 009°10'1 0.6
2015-Mar-25 06:34N 38°42' W 009°10'1 0.6
2015-Mar-25 05:33N 38°42' W 009°10'0 0.0
2015-Mar-25 04:31N 38°42' W 009°10'0 0.0
2015-Mar-25 03:34N 38°42' W 009°10'0 0.0
2015-Mar-25 02:30N 38°42' W 009°10'0 0.0
2015-Mar-25 01:33N 38°42' W 009°10'2 2.2
2015-Mar-25 00:33N 38°41' W 009°12'1 0.5
2015-Mar-24 23:33N 38°41' W 009°12'2 2.2
2015-Mar-24 22:34N 38°42' W 009°10'0 0.4
2015-Mar-24 21:34N 38°42' W 009°10'0 0.0
2015-Mar-24 20:33N 38°42' W 009°10'2 1.9
2015-Mar-24 19:34N 38°41' W 009°12'0 0.2
2015-Mar-24 18:33N 38°41' W 009°11'2 1.7
2015-Mar-24 17:32N 38°42' W 009°10'0 0.0
2015-Mar-24 16:34N 38°42' W 009°10'0 0.0
2015-Mar-24 15:32N 38°42' W 009°10'0 0.0
2015-Mar-24 14:29N 38°42' W 009°10'0 0.0
2015-Mar-24 13:33N 38°42' W 009°10'0 0.0
2015-Mar-24 12:33N 38°42' W 009°10'0 0.0
2015-Mar-24 11:30N 38°42' W 009°10'0 0.2
2015-Mar-24 10:34N 38°42' W 009°10'0 0.1
2015-Mar-24 09:33N 38°42' W 009°10'0 0.2
2015-Mar-24 08:34N 38°42' W 009°09'0 0.2
2015-Mar-24 07:34N 38°42' W 009°10'0 0.0
2015-Mar-24 06:34N 38°42' W 009°10'0 0.0
2015-Mar-24 05:34N 38°42' W 009°10'0 0.0
2015-Mar-24 04:33N 38°42' W 009°10'0 0.0
2015-Mar-24 03:33N 38°42' W 009°10'0 0.0
2015-Mar-24 02:33N 38°42' W 009°10'0 0.0
2015-Mar-24 01:33N 38°42' W 009°10'0 0.0
2015-Mar-24 00:33N 38°42' W 009°10'0 0.0
2015-Mar-23 23:34N 38°42' W 009°10'0 0.0
2015-Mar-23 22:33N 38°42' W 009°10'1 0.9
2015-Mar-23 21:33N 38°42' W 009°10'1 0.7
2015-Mar-23 20:33N 38°42' W 009°10'0 0.2
2015-Mar-23 19:34N 38°42' W 009°10'0 0.0
2015-Mar-23 18:34N 38°42' W 009°10'0 0.0
2015-Mar-23 17:34N 38°42' W 009°10'0 0.0
2015-Mar-23 16:33N 38°42' W 009°10'0 0.0
2015-Mar-23 15:33N 38°42' W 009°10'0 0.0
2015-Mar-23 14:34N 38°42' W 009°10'0 0.0
2015-Mar-23 13:34N 38°42' W 009°10'0 0.0
2015-Mar-23 12:28N 38°42' W 009°10'2 2.0
2015-Mar-23 11:34N 38°41' W 009°08'1 0.7
2015-Mar-23 10:34N 38°40' W 009°09'0 0.3
2015-Mar-23 09:34N 38°40' W 009°09'0 0.3
2015-Mar-23 08:33N 38°40' W 009°09'2 1.6
2015-Mar-23 07:34N 38°41' W 009°10'1 0.8
2015-Mar-23 06:34N 38°42' W 009°10'0 0.0
2015-Mar-23 05:33N 38°42' W 009°10'0 0.0
2015-Mar-23 04:33N 38°42' W 009°10'0 0.0
2015-Mar-23 03:33N 38°42' W 009°10'0 0.0
2015-Mar-23 02:33N 38°42' W 009°10'0 0.0
2015-Mar-23 01:33N 38°42' W 009°10'0 0.0
2015-Mar-23 00:34N 38°42' W 009°10'0 0.0
2015-Mar-22 23:34N 38°42' W 009°10'0 0.0
2015-Mar-22 22:34N 38°42' W 009°10'0 0.0
2015-Mar-22 21:33N 38°42' W 009°10'0 0.0
2015-Mar-22 20:33N 38°42' W 009°10'0 0.0
2015-Mar-22 19:34N 38°42' W 009°10'1 0.7
2015-Mar-22 18:34N 38°42' W 009°10'2 2.0
2015-Mar-22 17:33N 38°40' W 009°09'0 0.2
2015-Mar-22 16:34N 38°40' W 009°09'1 1.2
2015-Mar-22 15:33N 38°42' W 009°09'1 1.0
2015-Mar-22 14:33N 38°42' W 009°10'0 0.0
2015-Mar-22 13:33N 38°42' W 009°10'0 0.0
2015-Mar-22 12:32N 38°42' W 009°10'0 0.0
2015-Mar-22 11:34N 38°42' W 009°10'0 0.0
2015-Mar-22 10:34N 38°42' W 009°10'0 0.0
2015-Mar-22 09:33N 38°42' W 009°10'0 0.0
2015-Mar-22 08:34N 38°42' W 009°10'1 0.6
2015-Mar-22 07:33N 38°42' W 009°10'1 1.1
2015-Mar-22 06:33N 38°42' W 009°09'1 0.8
2015-Mar-22 05:33N 38°42' W 009°10'0 0.0
2015-Mar-22 04:33N 38°42' W 009°10'0 0.0
2015-Mar-22 03:33N 38°42' W 009°10'0 0.0
2015-Mar-22 02:33N 38°42' W 009°10'0 0.0
2015-Mar-22 01:33N 38°42' W 009°10'0 0.0
2015-Mar-22 00:33N 38°42' W 009°10'0 0.0
2015-Mar-21 23:33N 38°42' W 009°10'0 0.0
2015-Mar-21 22:33N 38°42' W 009°10'0 0.0
2015-Mar-21 21:33N 38°42' W 009°10'0 0.0
2015-Mar-21 20:33N 38°42' W 009°10'0 0.0
2015-Mar-21 19:33N 38°42' W 009°10'0 0.0
2015-Mar-21 18:33N 38°42' W 009°10'0 0.0
2015-Mar-21 17:31N 38°42' W 009°10'0 0.0
2015-Mar-21 16:31N 38°42' W 009°10'0 0.0
2015-Mar-21 15:32N 38°42' W 009°10'0 0.0
2015-Mar-21 14:33N 38°42' W 009°10'  

Dump ship's entire track history